Time;durP1;ratioP1;P1;durP2;ratioP2;P2;SDS_P1;SDS_P2;PMS_P1;PMS_P2;Temp;Humidity;BMP_temperature;BMP_pressure;BME280_temperature;BME280_humidity;BME280_pressure;Samples;Min_cycle;Max_cycle;Signal;HPM_P1;HPM_P2
2024/01/18 00:01:11;;;;;;;90.00;49.40;;;;;;;-0.81;71.87;98529.98;104903;1257;60459;-59
2024/01/18 00:03:44;;;;;;;92.80;47.20;;;;;;;-0.80;71.97;98527.27;104645;1256;137770;-61
2024/01/18 00:06:11;;;;;;;93.50;50.10;;;;;;;-0.79;72.15;98525.91;104959;1259;66663;-60
2024/01/18 00:08:38;;;;;;;86.20;46.40;;;;;;;-0.78;72.04;98529.56;104997;1256;71980;-59
2024/01/18 00:11:04;;;;;;;91.30;46.70;;;;;;;-0.77;72.11;98534.58;104984;1254;138128;-60
2024/01/18 00:13:31;;;;;;;93.00;48.20;;;;;;;-0.77;71.98;98533.04;105000;1259;60862;-61
2024/01/18 00:15:58;;;;;;;94.80;48.80;;;;;;;-0.78;72.00;98531.81;104997;1257;138738;-60
2024/01/18 00:18:24;;;;;;;81.90;44.40;;;;;;;-0.77;71.85;98533.55;105137;1255;64738;-61
2024/01/18 00:20:51;;;;;;;87.40;48.10;;;;;;;-0.77;71.92;98527.86;104926;1256;138384;-61
2024/01/18 00:23:18;;;;;;;79.40;43.80;;;;;;;-0.75;71.83;98531.58;105188;1259;60475;-60
2024/01/18 00:25:44;;;;;;;83.80;44.90;;;;;;;-0.73;71.84;98534.92;105099;1254;60566;-60
2024/01/18 00:28:11;;;;;;;86.30;46.90;;;;;;;-0.71;71.81;98538.41;104705;1260;137455;-68
2024/01/18 00:30:37;;;;;;;83.60;46.40;;;;;;;-0.71;71.98;98545.29;105007;1257;66148;-69
2024/01/18 00:33:04;;;;;;;84.20;47.10;;;;;;;-0.70;71.87;98549.65;104952;1257;138378;-68
2024/01/18 00:35:31;;;;;;;85.10;45.70;;;;;;;-0.71;71.87;98553.23;108977;1254;58531;-68
2024/01/18 00:37:58;;;;;;;88.30;47.90;;;;;;;-0.72;71.88;98557.84;109178;1254;59588;-68
2024/01/18 00:40:24;;;;;;;86.20;45.40;;;;;;;-0.72;71.86;98554.40;109033;1254;137812;-68
2024/01/18 00:42:51;;;;;;;90.30;47.00;;;;;;;-0.72;71.98;98547.52;109185;1256;64936;-68
2024/01/18 00:45:18;;;;;;;85.20;47.10;;;;;;;-0.72;71.69;98546.98;109050;1256;137791;-68
2024/01/18 00:47:45;;;;;;;86.70;46.00;;;;;;;-0.71;71.72;98547.55;106587;1254;60524;-68
2024/01/18 00:50:11;;;;;;;80.10;45.00;;;;;;;-0.71;71.79;98543.59;105011;1256;60338;-68
2024/01/18 00:52:38;;;;;;;88.20;46.00;;;;;;;-0.72;71.80;98537.86;104864;1259;138133;-67
2024/01/18 00:55:06;;;;;;;96.00;48.30;;;;;;;-0.75;71.91;98536.73;104812;1260;66770;-68
2024/01/18 00:57:33;;;;;;;94.70;51.30;;;;;;;-0.77;71.86;98533.22;108844;1254;138731;-68
2024/01/18 01:00:00;;;;;;;106.00;53.60;;;;;;;-0.75;71.90;98531.91;109176;1254;59329;-68
2024/01/18 01:02:27;;;;;;;106.40;54.30;;;;;;;-0.74;72.09;98535.58;109146;1257;60936;-68
2024/01/18 01:04:54;;;;;;;108.30;53.70;;;;;;;-0.72;72.05;98537.86;109016;1256;138293;-68
2024/01/18 01:07:20;;;;;;;97.20;52.40;;;;;;;-0.71;71.95;98543.94;109174;1256;65810;-68
2024/01/18 01:09:47;;;;;;;93.30;48.20;;;;;;;-0.68;72.16;98542.30;109050;1254;138486;-68
2024/01/18 01:12:14;;;;;;;97.10;48.40;;;;;;;-0.66;72.14;98540.66;109150;1257;58310;-67
2024/01/18 01:14:40;;;;;;;95.90;49.30;;;;;;;-0.62;72.15;98535.61;109147;1254;61662;-59
2024/01/18 01:17:07;;;;;;;85.80;47.80;;;;;;;-0.58;71.99;98540.39;109076;1254;137309;-59
2024/01/18 01:19:34;;;;;;;84.30;44.90;;;;;;;-0.58;72.07;98536.63;109224;1254;66651;-68
2024/01/18 01:22:00;;;;;;;85.10;44.40;;;;;;;-0.58;72.00;98537.31;109056;1254;137803;-68
2024/01/18 01:24:27;;;;;;;91.80;47.60;;;;;;;-0.56;72.07;98542.70;109151;1257;58150;-68
2024/01/18 01:26:54;;;;;;;81.70;44.20;;;;;;;-0.53;72.22;98539.35;109026;1256;138285;-59
2024/01/18 01:29:20;;;;;;;82.30;43.40;;;;;;;-0.53;71.96;98534.38;109140;1254;73980;-60
2024/01/18 01:31:48;;;;;;;86.30;43.50;;;;;;;-0.55;71.92;98533.96;107495;1256;63988;-60
2024/01/18 01:34:15;;;;;;;84.00;45.20;;;;;;;-0.55;72.03;98523.59;104852;1259;137549;-69
2024/01/18 01:36:41;;;;;;;89.40;44.10;;;;;;;-0.56;72.20;98520.66;104912;1257;60450;-69
2024/01/18 01:39:10;;;;;;;87.70;46.70;;;;;;;-0.58;72.28;98523.19;104792;1255;138198;-59
2024/01/18 01:41:36;;;;;;;86.80;45.00;;;;;;;-0.57;72.25;98527.85;105000;1258;73789;-59
2024/01/18 01:44:03;;;;;;;84.10;45.70;;;;;;;-0.58;72.36;98527.65;104935;1257;65420;-59
2024/01/18 01:46:30;;;;;;;84.10;45.20;;;;;;;-0.61;72.37;98528.59;104883;1259;137657;-60
2024/01/18 01:49:01;;;;;;;82.60;44.30;;;;;;;-0.63;72.38;98529.73;105012;1256;60582;-60
2024/01/18 01:51:36;;;;;;;90.30;46.20;;;;;;;-0.63;72.46;98525.08;104851;1257;138767;-60
2024/01/18 01:54:03;;;;;;;91.30;47.60;;;;;;;-0.65;72.39;98522.98;109116;1255;74449;-58
2024/01/18 01:56:31;;;;;;;95.40;49.00;;;;;;;-0.65;72.43;98530.16;107257;1254;65851;-58
2024/01/18 01:58:57;;;;;;;90.10;48.30;;;;;;;-0.65;72.49;98535.70;108990;1256;139313;-59
2024/01/18 02:01:25;;;;;;;94.80;47.80;;;;;;;-0.63;72.54;98532.30;105855;1260;59580;-60
2024/01/18 02:03:51;;;;;;;97.10;48.60;;;;;;;-0.65;72.45;98533.98;104811;1255;138094;-60
2024/01/18 02:06:18;;;;;;;83.90;45.80;;;;;;;-0.65;72.45;98531.06;105118;1257;73436;-68
2024/01/18 02:08:45;;;;;;;84.70;45.00;;;;;;;-0.63;72.62;98530.94;105001;1257;137630;-67
2024/01/18 02:11:11;;;;;;;87.00;46.80;;;;;;;-0.63;72.63;98528.18;104867;1258;73071;-68
2024/01/18 02:13:41;;;;;;;86.10;45.00;;;;;;;-0.63;72.66;98528.52;104987;1256;60431;-59
2024/01/18 02:16:07;;;;;;;82.20;44.70;;;;;;;-0.64;72.58;98529.86;104906;1255;137923;-59
2024/01/18 02:18:35;;;;;;;80.00;44.30;;;;;;;-0.64;72.72;98529.18;104686;1254;72979;-59
2024/01/18 02:21:08;;;;;;;79.20;43.00;;;;;;;-0.64;72.74;98533.16;104889;1257;138215;-61
2024/01/18 02:23:34;;;;;;;79.20;42.40;;;;;;;-0.65;72.70;98537.08;109157;1254;73465;-69
2024/01/18 02:26:01;;;;;;;80.20;44.60;;;;;;;-0.66;72.77;98537.42;107128;1257;60550;-68
2024/01/18 02:28:28;;;;;;;83.80;43.60;;;;;;;-0.65;72.76;98539.66;104971;1257;138330;-70
2024/01/18 02:30:55;;;;;;;81.40;45.50;;;;;;;-0.65;72.88;98539.30;104860;1259;74629;-69
2024/01/18 02:33:21;;;;;;;84.00;45.10;;;;;;;-0.67;72.84;98538.73;104918;1259;138907;-60
2024/01/18 02:35:50;;;;;;;92.90;49.50;;;;;;;-0.67;72.81;98547.17;104997;1259;73667;-69
2024/01/18 02:38:16;;;;;;;89.40;46.40;;;;;;;-0.66;72.96;98549.80;104978;1256;60441;-61
2024/01/18 02:40:43;;;;;;;95.20;48.60;;;;;;;-0.67;73.01;98550.45;104859;1258;138202;-70
2024/01/18 02:43:09;;;;;;;92.50;48.00;;;;;;;-0.67;73.13;98553.70;104723;1262;73692;-68
2024/01/18 02:45:36;;;;;;;92.80;49.00;;;;;;;-0.67;73.25;98557.69;104871;1261;138849;-59
2024/01/18 02:48:04;;;;;;;98.00;48.20;;;;;;;-0.67;73.04;98562.52;104955;1256;72676;-60
2024/01/18 02:50:31;;;;;;;87.20;45.30;;;;;;;-0.68;73.16;98560.38;107227;1254;60495;-59
2024/01/18 02:52:57;;;;;;;93.70;47.60;;;;;;;-0.68;73.22;98563.98;104709;1256;137827;-66
2024/01/18 02:55:24;;;;;;;90.90;48.30;;;;;;;-0.67;73.40;98559.93;105030;1257;73216;-68
2024/01/18 02:57:53;;;;;;;88.10;48.90;;;;;;;-0.65;73.50;98561.71;105043;1259;137676;-67
2024/01/18 03:00:20;;;;;;;86.70;46.60;;;;;;;-0.64;73.51;98561.38;104950;1255;73165;-68
2024/01/18 03:02:47;;;;;;;97.40;47.90;;;;;;;-0.63;73.47;98557.13;105046;1257;138906;-66
2024/01/18 03:05:13;;;;;;;86.40;44.70;;;;;;;-0.64;73.39;98553.82;105104;1259;60472;-67
2024/01/18 03:07:40;;;;;;;88.00;47.90;;;;;;;-0.65;73.66;98555.48;105114;1255;74720;-68
2024/01/18 03:10:08;;;;;;;85.30;45.70;;;;;;;-0.64;73.59;98552.11;104978;1259;138493;-68
2024/01/18 03:12:37;;;;;;;85.80;45.60;;;;;;;-0.66;73.53;98552.73;109187;1254;71834;-67
2024/01/18 03:15:05;;;;;;;90.10;46.70;;;;;;;-0.67;73.53;98550.61;108973;1257;137791;-66
2024/01/18 03:17:32;;;;;;;87.30;48.00;;;;;;;-0.67;73.58;98550.09;109153;1254;59958;-67
2024/01/18 03:19:58;;;;;;;83.10;44.90;;;;;;;-0.65;73.72;98551.52;109166;1255;74440;-68
2024/01/18 03:22:25;;;;;;;82.90;46.10;;;;;;;-0.66;73.65;98550.48;109057;1256;138369;-69
2024/01/18 03:24:52;;;;;;;82.50;45.50;;;;;;;-0.68;73.57;98549.73;108239;1256;72285;-68
2024/01/18 03:27:20;;;;;;;87.50;45.80;;;;;;;-0.68;73.73;98543.50;104957;1259;138227;-59
2024/01/18 03:29:46;;;;;;;82.80;44.00;;;;;;;-0.67;73.81;98545.96;104972;1255;60373;-59
2024/01/18 03:32:14;;;;;;;82.20;41.90;;;;;;;-0.68;73.75;98552.99;105036;1260;72732;-60
2024/01/18 03:34:41;;;;;;;81.40;43.60;;;;;;;-0.70;73.57;98553.08;104761;1255;138407;-60
2024/01/18 03:37:08;;;;;;;81.80;42.90;;;;;;;-0.73;73.70;98549.38;105067;1257;73360;-59
2024/01/18 03:39:35;;;;;;;77.30;43.20;;;;;;;-0.74;73.88;98551.94;104923;1257;137908;-57
2024/01/18 03:42:04;;;;;;;75.50;42.80;;;;;;;-0.74;73.81;98554.15;105039;1259;60917;-59
2024/01/18 03:44:33;;;;;;;79.60;42.10;;;;;;;-0.75;73.64;98562.73;104936;1259;72812;-61
2024/01/18 03:47:00;;;;;;;78.70;42.10;;;;;;;-0.79;73.75;98562.77;109085;1256;137554;-59
2024/01/18 03:49:27;;;;;;;74.50;40.10;;;;;;;-0.82;73.75;98568.02;108785;1254;73546;-59
2024/01/18 03:51:54;;;;;;;78.50;41.70;;;;;;;-0.84;73.89;98572.27;104974;1259;137947;-60
2024/01/18 03:54:21;;;;;;;81.70;41.70;;;;;;;-0.85;73.75;98572.02;105027;1259;61164;-60
2024/01/18 03:56:47;;;;;;;73.50;40.40;;;;;;;-0.87;73.84;98574.02;104932;1259;137979;-59
2024/01/18 03:59:15;;;;;;;68.50;38.60;;;;;;;-0.90;73.76;98579.26;105127;1259;66904;-68
2024/01/18 04:01:43;;;;;;;71.10;40.50;;;;;;;-0.92;73.77;98576.63;104991;1257;71930;-59
2024/01/18 04:04:09;;;;;;;70.60;39.40;;;;;;;-0.91;73.85;98574.56;105026;1259;137370;-60
2024/01/18 04:06:36;;;;;;;73.70;39.90;;;;;;;-0.93;73.49;98581.04;105038;1259;60864;-59
2024/01/18 04:09:05;;;;;;;72.00;39.20;;;;;;;-0.94;73.39;98585.63;104796;1254;138431;-59
2024/01/18 04:11:32;;;;;;;69.00;36.40;;;;;;;-0.95;73.63;98592.52;106132;1257;65401;-60
2024/01/18 04:13:59;;;;;;;67.70;35.90;;;;;;;-0.97;73.60;98593.83;105018;1257;73354;-59
2024/01/18 04:16:25;;;;;;;62.60;35.20;;;;;;;-1.01;73.37;98597.31;104757;1259;138017;-59
2024/01/18 04:18:52;;;;;;;62.80;35.20;;;;;;;-1.05;73.34;98594.23;105206;1259;60492;-60
2024/01/18 04:21:19;;;;;;;60.20;34.40;;;;;;;-1.07;73.33;98606.70;104874;1255;139349;-59
2024/01/18 04:23:46;;;;;;;68.10;36.20;;;;;;;-1.09;73.27;98610.26;104884;1256;67063;-60
2024/01/18 04:26:13;;;;;;;70.60;38.00;;;;;;;-1.12;73.27;98609.30;104872;1262;70693;-59
2024/01/18 04:28:39;;;;;;;64.60;36.00;;;;;;;-1.14;73.11;98611.09;104894;1257;137682;-60
2024/01/18 04:31:06;;;;;;;66.40;35.60;;;;;;;-1.19;73.15;98611.96;104977;1254;61051;-60
2024/01/18 04:33:32;;;;;;;70.50;38.40;;;;;;;-1.24;73.16;98612.13;104861;1256;137390;-60
2024/01/18 04:35:59;;;;;;;67.10;36.60;;;;;;;-1.31;73.14;98607.89;105029;1259;67006;-60
2024/01/18 04:38:26;;;;;;;66.40;37.70;;;;;;;-1.38;72.88;98612.45;105091;1257;72884;-60
2024/01/18 04:40:53;;;;;;;68.50;36.70;;;;;;;-1.46;72.97;98621.09;104861;1257;138432;-60
2024/01/18 04:43:20;;;;;;;72.70;37.90;;;;;;;-1.54;73.01;98623.18;105012;1259;60783;-60
2024/01/18 04:45:47;;;;;;;67.50;36.00;;;;;;;-1.62;72.98;98627.71;109039;1255;137231;-60
2024/01/18 04:48:14;;;;;;;71.00;37.80;;;;;;;-1.69;73.05;98625.03;109016;1254;66313;-59
2024/01/18 04:50:40;;;;;;;70.50;37.20;;;;;;;-1.74;73.12;98632.75;109146;1256;71390;-59
2024/01/18 04:53:07;;;;;;;72.70;39.30;;;;;;;-1.78;73.15;98625.17;109040;1255;139491;-59
2024/01/18 04:55:34;;;;;;;62.90;36.20;;;;;;;-1.80;73.36;98625.81;109136;1258;60392;-60
2024/01/18 04:58:00;;;;;;;68.10;37.70;;;;;;;-1.81;73.27;98629.71;108991;1258;138658;-59
2024/01/18 05:00:27;;;;;;;74.60;38.90;;;;;;;-1.84;73.16;98629.27;109177;1255;66698;-59
2024/01/18 05:02:54;;;;;;;72.10;38.00;;;;;;;-1.87;73.25;98629.30;108798;1255;139651;-60
2024/01/18 05:05:21;;;;;;;67.30;37.20;;;;;;;-1.91;73.36;98630.50;106182;1259;59464;-60
2024/01/18 05:07:49;;;;;;;63.70;36.20;;;;;;;-1.93;73.33;98630.59;104964;1259;61054;-59
2024/01/18 05:10:16;;;;;;;74.00;38.60;;;;;;;-1.95;73.41;98635.00;109033;1256;138612;-59
2024/01/18 05:12:45;;;;;;;68.10;36.50;;;;;;;-1.99;73.32;98638.30;105491;1257;66692;-60
2024/01/18 05:15:12;;;;;;;65.70;37.80;;;;;;;-2.02;73.51;98640.55;108978;1256;137762;-59
2024/01/18 05:17:39;;;;;;;75.10;39.60;;;;;;;-2.05;73.45;98640.27;106524;1260;60716;-60
2024/01/18 05:20:06;;;;;;;71.10;38.00;;;;;;;-2.06;73.51;98634.22;107230;1258;61052;-64
2024/01/18 05:22:34;;;;;;;72.70;39.70;;;;;;;-2.02;73.83;98630.27;105460;1257;137551;-64
2024/01/18 05:25:02;;;;;;;76.10;40.60;;;;;;;-1.93;73.99;98626.16;105136;1260;67006;-65
2024/01/18 05:27:29;;;;;;;83.30;43.60;;;;;;;-1.82;74.09;98628.65;105612;1257;137767;-60
2024/01/18 05:29:57;;;;;;;79.70;42.60;;;;;;;-1.72;74.03;98629.19;105071;1255;60556;-58
2024/01/18 05:32:24;;;;;;;75.60;40.20;;;;;;;-1.64;74.21;98637.80;107307;1259;61000;-65
2024/01/18 05:34:50;;;;;;;70.70;40.90;;;;;;;-1.57;74.03;98647.69;104891;1260;137569;-60
2024/01/18 05:37:18;;;;;;;74.50;40.70;;;;;;;-1.51;74.07;98652.20;104937;1258;66915;-66
2024/01/18 05:39:44;;;;;;;67.50;40.30;;;;;;;-1.45;74.03;98650.71;105447;1254;138530;-66
2024/01/18 05:42:11;;;;;;;72.60;41.10;;;;;;;-1.39;74.02;98650.09;105102;1258;60756;-70
2024/01/18 05:44:37;;;;;;;68.30;37.00;;;;;;;-1.34;73.99;98651.48;105164;1259;61564;-64
2024/01/18 05:47:04;;;;;;;66.00;38.00;;;;;;;-1.30;73.82;98653.70;105008;1258;137972;-60
2024/01/18 05:49:31;;;;;;;68.10;37.00;;;;;;;-1.25;73.85;98656.48;104728;1262;66661;-65
2024/01/18 05:51:58;;;;;;;66.70;35.50;;;;;;;-1.21;73.99;98662.33;104949;1254;138377;-65
2024/01/18 05:54:24;;;;;;;67.80;37.90;;;;;;;-1.16;73.81;98668.52;105050;1259;60440;-66
2024/01/18 05:56:51;;;;;;;64.10;38.80;;;;;;;-1.11;73.93;98667.15;104944;1257;137688;-65
2024/01/18 05:59:17;;;;;;;65.40;37.70;;;;;;;-1.06;73.89;98669.23;104964;1260;74283;-65
2024/01/18 06:01:44;;;;;;;65.50;35.10;;;;;;;-1.02;74.02;98671.80;105009;1257;67464;-67
2024/01/18 06:04:11;;;;;;;62.20;35.90;;;;;;;-1.00;73.92;98673.95;104757;1257;137670;-68
2024/01/18 06:06:37;;;;;;;65.00;37.20;;;;;;;-1.00;73.80;98672.05;105006;1260;60509;-65
2024/01/18 06:09:04;;;;;;;57.00;33.50;;;;;;;-1.00;73.73;98672.55;104979;1254;137855;-66
2024/01/18 06:11:31;;;;;;;61.40;35.60;;;;;;;-1.03;73.61;98673.32;105122;1259;71846;-66
2024/01/18 06:13:57;;;;;;;63.20;36.10;;;;;;;-1.07;73.59;98682.79;105135;1254;65535;-66
2024/01/18 06:16:24;;;;;;;59.40;35.50;;;;;;;-1.14;73.46;98678.39;105024;1259;138174;-67
2024/01/18 06:18:52;;;;;;;63.10;35.10;;;;;;;-1.22;73.55;98674.50;105045;1258;60502;-66
2024/01/18 06:21:19;;;;;;;65.50;36.00;;;;;;;-1.31;73.59;98676.90;104863;1258;138495;-66
2024/01/18 06:23:46;;;;;;;62.80;35.50;;;;;;;-1.40;73.59;98680.51;105327;1257;74836;-65
2024/01/18 06:26:12;;;;;;;85.10;43.40;;;;;;;-1.52;73.55;98684.16;105015;1260;67154;-65
2024/01/18 06:28:39;;;;;;;90.60;42.90;;;;;;;-1.63;73.58;98683.91;105026;1258;138095;-67
2024/01/18 06:31:06;;;;;;;70.10;36.30;;;;;;;-1.74;73.70;98682.27;105078;1260;59676;-65
2024/01/18 06:33:33;;;;;;;76.70;38.50;;;;;;;-1.82;73.91;98680.55;105009;1260;138775;-67
2024/01/18 06:36:00;;;;;;;76.60;41.50;;;;;;;-1.88;74.00;98682.55;105151;1259;74155;-65
2024/01/18 06:38:26;;;;;;;68.30;36.90;;;;;;;-1.95;74.05;98690.19;106584;1257;67311;-65
2024/01/18 06:40:54;;;;;;;65.40;36.30;;;;;;;-2.00;74.31;98697.73;104665;1258;137752;-65
2024/01/18 06:43:20;;;;;;;70.80;39.90;;;;;;;-2.06;74.44;98698.50;104867;1261;60420;-67
2024/01/18 06:45:54;;;;;;;73.10;38.00;;;;;;;-2.12;74.41;98708.20;104932;1255;137840;-66
2024/01/18 06:48:21;;;;;;;;;;;;;;;-2.19;74.46;98713.58;105061;1257;74994;-66
2024/01/18 06:50:48;;;;;;;67.40;37.20;;;;;;;-2.26;74.36;98721.88;105013;1258;124346;-65
2024/01/18 06:53:14;;;;;;;65.10;35.70;;;;;;;-2.34;74.57;98728.39;105426;1260;70761;-67
2024/01/18 06:55:41;;;;;;;68.30;37.90;;;;;;;-2.42;74.69;98728.07;105077;1261;60533;-67
2024/01/18 06:58:08;;;;;;;62.60;36.50;;;;;;;-2.49;74.78;98726.88;104934;1260;137756;-66
2024/01/18 07:00:34;;;;;;;64.20;37.20;;;;;;;-2.55;75.09;98728.88;105123;1258;74859;-66
2024/01/18 07:03:01;;;;;;;73.00;37.80;;;;;;;-2.59;75.21;98730.90;105167;1255;139048;-67
2024/01/18 07:05:28;;;;;;;70.30;38.50;;;;;;;-2.64;75.29;98734.13;105271;1259;73644;-67
2024/01/18 07:07:55;;;;;;;70.40;37.90;;;;;;;-2.67;75.36;98739.30;105174;1254;60476;-66
2024/01/18 07:10:22;;;;;;;72.20;37.90;;;;;;;-2.71;75.62;98739.45;104967;1258;138719;-66
2024/01/18 07:12:49;;;;;;;69.50;38.30;;;;;;;-2.73;75.71;98741.95;105157;1260;74510;-66
2024/01/18 07:15:16;;;;;;;72.50;39.00;;;;;;;-2.72;75.96;98747.98;105090;1258;139222;-66
2024/01/18 07:17:43;;;;;;;72.80;37.80;;;;;;;-2.71;75.99;98758.70;105184;1267;72103;-66
2024/01/18 07:20:11;;;;;;;68.10;37.80;;;;;;;-2.72;75.84;98767.09;105132;1260;60418;-62
2024/01/18 07:22:37;;;;;;;69.40;37.10;;;;;;;-2.72;76.17;98773.59;108921;1255;138468;-61
2024/01/18 07:25:05;;;;;;;65.80;36.30;;;;;;;-2.71;76.21;98774.31;109107;1259;73720;-61
2024/01/18 07:27:32;;;;;;;65.00;36.80;;;;;;;-2.71;76.29;98769.50;105729;1254;138937;-60
2024/01/18 07:29:59;;;;;;;63.50;37.80;;;;;;;-2.72;76.26;98767.42;105124;1259;72374;-61
2024/01/18 07:32:25;;;;;;;64.30;34.70;;;;;;;-2.74;76.28;98770.44;105129;1259;60496;-60
2024/01/18 07:34:52;;;;;;;58.40;34.40;;;;;;;-2.75;76.38;98766.80;105034;1264;138599;-60
2024/01/18 07:37:19;;;;;;;59.50;34.30;;;;;;;-2.75;76.46;98768.48;105036;1260;73262;-59
2024/01/18 07:39:45;;;;;;;67.00;35.80;;;;;;;-2.75;76.53;98776.22;104792;1260;138319;-61
2024/01/18 07:42:12;;;;;;;65.40;37.80;;;;;;;-2.76;76.51;98782.54;105119;1260;73025;-61
2024/01/18 07:44:42;;;;;;;65.40;37.50;;;;;;;-2.77;76.49;98781.59;105177;1259;60555;-60
2024/01/18 07:47:10;;;;;;;63.70;36.60;;;;;;;-2.80;76.49;98783.52;105059;1259;137292;-60
2024/01/18 07:49:42;;;;;;;61.70;35.90;;;;;;;-2.83;76.40;98790.97;105073;1260;73216;-60
2024/01/18 07:52:09;;;;;;;58.30;35.10;;;;;;;-2.83;76.51;98803.48;104970;1254;137411;-61
2024/01/18 07:54:36;;;;;;;63.80;36.30;;;;;;;-2.84;76.47;98805.98;105073;1259;72675;-61
2024/01/18 07:57:04;;;;;;;62.40;36.40;;;;;;;-2.88;76.55;98810.77;104927;1260;137931;-60
2024/01/18 07:59:31;;;;;;;65.50;37.60;;;;;;;-2.91;76.51;98816.66;105081;1259;60533;-60
2024/01/18 08:01:59;;;;;;;64.80;38.70;;;;;;;-2.92;76.66;98810.77;109166;1254;73552;-61
2024/01/18 08:04:26;;;;;;;70.50;38.30;;;;;;;-2.93;76.67;98809.00;108929;1254;195139;-61
2024/01/18 08:06:52;;;;;;;60.80;35.60;;;;;;;-2.92;76.74;98808.54;109188;1255;71117;-61
2024/01/18 08:09:19;;;;;;;62.50;35.00;;;;;;;-2.91;76.71;98811.31;109087;1254;138579;-61
2024/01/18 08:11:46;;;;;;;68.50;37.70;;;;;;;-2.91;76.70;98817.52;109250;1254;59470;-62
2024/01/18 08:14:13;;;;;;;65.40;36.50;;;;;;;-2.88;76.73;98828.98;109185;1254;72648;-62
2024/01/18 08:16:40;;;;;;;60.10;33.60;;;;;;;-2.82;76.91;98826.85;105560;1260;138201;-61
2024/01/18 08:19:07;;;;;;;53.70;32.20;;;;;;;-2.76;77.05;98830.42;105098;1258;72979;-61
2024/01/18 08:21:34;;;;;;;55.30;31.00;;;;;;;-2.69;76.99;98836.89;104924;1259;137996;-60
2024/01/18 08:24:00;;;;;;;57.70;31.20;;;;;;;-2.64;77.06;98841.26;108772;1255;59013;-61
2024/01/18 08:26:29;;;;;;;50.70;28.50;;;;;;;-2.57;77.15;98846.73;109247;1254;73606;-61
2024/01/18 08:28:55;;;;;;;44.90;27.80;;;;;;;-2.48;77.30;98842.84;109088;1259;140474;-61
2024/01/18 08:31:22;;;;;;;49.20;28.50;;;;;;;-2.36;77.37;98843.72;109113;1254;73527;-64
2024/01/18 08:33:49;;;;;;;47.00;28.40;;;;;;;-2.23;77.65;98850.85;105040;1259;138874;-67
2024/01/18 08:36:15;;;;;;;52.90;29.20;;;;;;;-2.10;77.39;98856.25;105113;1258;60395;-66
2024/01/18 08:38:42;;;;;;;53.00;30.00;;;;;;;-1.95;77.59;98857.08;105161;1260;72806;-67
2024/01/18 08:41:10;;;;;;;56.70;31.40;;;;;;;-1.78;77.92;98858.49;105051;1259;137529;-66
2024/01/18 08:43:37;;;;;;;53.30;30.80;;;;;;;-1.63;77.81;98860.88;105233;1259;71254;-65
2024/01/18 08:46:06;;;;;;;44.70;27.00;;;;;;;-1.49;77.64;98858.37;104950;1261;137593;-66
2024/01/18 08:48:36;;;;;;;52.10;28.50;;;;;;;-1.36;77.60;98864.25;105091;1260;60922;-67
2024/01/18 08:51:04;;;;;;;46.60;27.20;;;;;;;-1.23;77.67;98870.29;105171;1254;137618;-60
2024/01/18 08:53:30;;;;;;;45.20;27.90;;;;;;;-1.09;77.63;98878.27;105179;1254;66836;-66
2024/01/18 08:55:57;;;;;;;55.80;33.60;;;;;;;-0.93;77.63;98881.33;105090;1266;71749;-60
2024/01/18 08:58:24;;;;;;;144.40;78.60;;;;;;;-0.76;77.61;98878.40;104906;1259;138225;-60
2024/01/18 09:00:50;;;;;;;105.00;61.20;;;;;;;-0.58;77.71;98870.66;104840;1254;60432;-61
2024/01/18 09:03:17;;;;;;;130.70;71.60;;;;;;;-0.37;77.43;98874.04;104990;1260;138913;-65
2024/01/18 09:05:44;;;;;;;168.50;84.50;;;;;;;-0.16;77.34;98880.17;105102;1259;66179;-66
2024/01/18 09:08:10;;;;;;;59.90;37.00;;;;;;;0.08;77.52;98883.45;105109;1259;73789;-64
2024/01/18 09:10:37;;;;;;;64.30;39.30;;;;;;;0.28;77.16;98885.90;104987;1254;138520;-65
2024/01/18 09:13:04;;;;;;;63.70;40.90;;;;;;;0.48;77.15;98887.14;105076;1259;60415;-66
2024/01/18 09:15:30;;;;;;;60.40;36.10;;;;;;;0.64;76.88;98892.54;104999;1259;137599;-61
2024/01/18 09:17:57;;;;;;;121.60;68.10;;;;;;;0.76;76.76;98893.98;105061;1261;66810;-65
2024/01/18 09:20:24;;;;;;;116.90;65.50;;;;;;;0.86;76.22;98900.15;105114;1255;73590;-66
2024/01/18 09:22:51;;;;;;;97.90;55.00;;;;;;;0.89;76.23;98905.95;104986;1260;138226;-65
2024/01/18 09:25:17;;;;;;;120.90;69.10;;;;;;;0.93;75.90;98908.88;104950;1260;60327;-66
2024/01/18 09:27:44;;;;;;;128.10;69.20;;;;;;;0.94;75.67;98912.20;105022;1255;137515;-61
2024/01/18 09:30:12;;;;;;;101.60;54.60;;;;;;;0.97;75.51;98919.35;105135;1254;66115;-65
2024/01/18 09:32:39;;;;;;;61.60;35.60;;;;;;;0.98;75.56;98925.45;105157;1254;72965;-65
2024/01/18 09:35:06;;;;;;;54.00;29.30;;;;;;;0.96;75.14;98924.70;105105;1254;137768;-60
2024/01/18 09:37:33;;;;;;;86.90;47.50;;;;;;;0.92;75.08;98929.90;106065;1256;60476;-65
2024/01/18 09:39:59;;;;;;;46.70;26.70;;;;;;;0.89;74.99;98931.20;105039;1256;137370;-66
2024/01/18 09:42:31;;;;;;;47.40;29.70;;;;;;;0.85;74.69;98930.36;105143;1259;67208;-66
2024/01/18 09:45:00;;;;;;;56.70;37.20;;;;;;;0.80;74.84;98933.11;105224;1254;137743;-61
2024/01/18 09:47:27;;;;;;;47.10;29.00;;;;;;;0.73;74.73;98930.64;109167;1254;58235;-61
2024/01/18 09:49:54;;;;;;;39.30;25.10;;;;;;;0.68;74.73;98937.88;109209;1254;58663;-62
2024/01/18 09:52:20;;;;;;;41.80;24.00;;;;;;;0.67;74.53;98935.41;108857;1254;137935;-61
2024/01/18 09:54:47;;;;;;;35.50;21.30;;;;;;;0.67;74.68;98934.73;109180;1254;64326;-62
2024/01/18 09:57:14;;;;;;;35.30;22.40;;;;;;;0.65;74.43;98935.87;109050;1254;138601;-62
2024/01/18 09:59:42;;;;;;;39.80;22.90;;;;;;;0.67;74.60;98946.13;108974;1254;58142;-62
2024/01/18 10:02:08;;;;;;;37.00;22.10;;;;;;;0.72;74.64;98945.79;107977;1260;61068;-61
2024/01/18 10:04:36;;;;;;;41.80;23.50;;;;;;;0.79;74.71;98948.44;104773;1260;137958;-61
2024/01/18 10:07:03;;;;;;;43.80;22.90;;;;;;;0.82;74.69;98952.69;105121;1254;65645;-61
2024/01/18 10:09:29;;;;;;;42.80;27.20;;;;;;;0.83;74.71;98950.64;104901;1254;137469;-61
2024/01/18 10:11:56;;;;;;;43.80;27.10;;;;;;;0.79;74.44;98951.91;105125;1254;60527;-61
2024/01/18 10:14:42;;;;;;;51.90;31.80;;;;;;;0.73;74.32;98950.64;105109;1259;61063;-61
2024/01/18 10:17:10;;;;;;;42.90;25.90;;;;;;;0.68;74.21;98954.09;104996;1259;137793;-61
2024/01/18 10:19:36;;;;;;;50.40;29.20;;;;;;;0.63;74.02;98958.92;108963;1257;65924;-61
2024/01/18 10:22:03;;;;;;;53.70;28.40;;;;;;;0.59;74.41;98956.89;105081;1264;137606;-60
2024/01/18 10:24:30;;;;;;;60.60;34.90;;;;;;;0.55;74.14;98965.91;105080;1254;60562;-61
2024/01/18 10:27:03;;;;;;;52.20;30.90;;;;;;;0.52;74.28;98968.92;104754;1254;137528;-61
2024/01/18 10:29:36;;;;;;;;;;;;;;;0.55;74.26;98971.10;109217;1254;73905;-61
2024/01/18 10:32:03;;;;;;;45.60;28.20;;;;;;;0.67;74.41;98962.00;109214;1254;65841;-60
2024/01/18 10:34:37;;;;;;;42.40;25.60;;;;;;;0.79;74.59;98959.16;109093;1254;138062;-60
2024/01/18 10:37:03;;;;;;;42.80;25.10;;;;;;;0.93;74.68;98953.95;109179;1254;58120;-60
2024/01/18 10:39:40;;;;;;;41.30;23.00;;;;;;;1.09;74.63;98955.01;108878;1254;139112;-60
2024/01/18 10:42:10;;;;;;;40.90;24.20;;;;;;;1.25;74.46;98959.16;109036;1254;72842;-61
2024/01/18 10:44:44;;;;;;;40.00;20.70;;;;;;;1.34;74.32;98960.64;109016;1254;66662;-61
2024/01/18 10:47:14;;;;;;;39.80;20.10;;;;;;;1.41;74.12;98966.76;109060;1254;137065;-61
2024/01/18 10:49:40;;;;;;;26.40;13.00;;;;;;;1.44;73.90;98967.05;109151;1254;58211;-60
2024/01/18 10:52:08;;;;;;;29.60;12.90;;;;;;;1.43;73.52;98970.45;109081;1254;137142;-61
2024/01/18 10:54:34;;;;;;;25.10;13.30;;;;;;;1.40;73.45;98973.30;106043;1254;74828;-65
2024/01/18 10:57:01;;;;;;;21.10;11.80;;;;;;;1.35;73.24;98983.01;105016;1261;137503;-65
2024/01/18 10:59:31;;;;;;;27.80;11.30;;;;;;;1.31;73.19;98982.88;105012;1254;73686;-60
2024/01/18 11:01:59;;;;;;;24.50;10.70;;;;;;;1.27;73.04;98985.65;105171;1254;60580;-60
2024/01/18 11:04:26;;;;;;;17.90;9.70;;;;;;;1.23;73.02;98988.27;109075;1254;137636;-62
2024/01/18 11:06:57;;;;;;;17.50;8.30;;;;;;;1.19;72.91;98990.21;109183;1254;73938;-62